Time;durP1;ratioP1;P1;durP2;ratioP2;P2;SDS_P1;SDS_P2;PMS_P1;PMS_P2;Temp;Humidity;BMP_temperature;BMP_pressure;BME280_temperature;BME280_humidity;BME280_pressure;Samples;Min_cycle;Max_cycle;Signal;HPM_P1;HPM_P2
2020/12/14 00:02:07;;;;;;;34.85;17.10;;;;;;;2.86;85.46;100121.25;4976141;28;20047;-75
2020/12/14 00:04:32;;;;;;;31.75;16.92;;;;;;;2.71;85.77;100119.97;4974661;28;20142;-75
2020/12/14 00:06:58;;;;;;;35.83;18.38;;;;;;;2.56;85.28;100073.00;4976084;28;20100;-76
2020/12/14 00:09:23;;;;;;;36.45;17.33;;;;;;;3.02;84.53;100130.41;4958448;28;20034;-76
2020/12/14 00:11:50;;;;;;;33.95;16.60;;;;;;;3.03;83.82;100115.47;4975918;28;20027;-76
2020/12/14 00:14:15;;;;;;;33.92;17.73;;;;;;;2.90;84.29;100136.06;4975437;28;20031;-77
2020/12/14 00:16:41;;;;;;;34.25;17.48;;;;;;;2.80;85.21;100138.13;4975555;28;20046;-77
2020/12/14 00:19:07;;;;;;;37.67;18.33;;;;;;;2.72;85.10;100102.38;4975291;28;20050;-75
2020/12/14 00:21:32;;;;;;;30.75;16.33;;;;;;;2.70;84.54;100081.38;4975535;28;20111;-75
2020/12/14 00:23:57;;;;;;;34.17;16.65;;;;;;;2.80;84.14;100095.97;4974330;28;20038;-75
2020/12/14 00:26:23;;;;;;;33.70;16.58;;;;;;;3.07;83.68;100149.56;4975120;28;20082;-77
2020/12/14 00:28:48;;;;;;;35.28;16.13;;;;;;;2.92;84.26;100144.78;4958042;28;20086;-76
2020/12/14 00:31:15;;;;;;;30.83;16.58;;;;;;;2.95;84.30;100154.34;4957747;28;20038;-79
2020/12/14 00:33:41;;;;;;;33.03;16.70;;;;;;;2.78;85.09;100144.31;4975628;28;20071;-77
2020/12/14 00:36:08;;;;;;;32.67;16.60;;;;;;;2.70;85.04;100126.13;4975793;28;20061;-78
2020/12/14 00:38:33;;;;;;;32.63;16.20;;;;;;;3.02;84.81;100163.81;4975025;28;20106;-77
2020/12/14 00:40:59;;;;;;;31.60;16.98;;;;;;;2.91;84.56;100163.28;4975355;28;20472;-78
2020/12/14 00:43:24;;;;;;;34.88;17.15;;;;;;;2.75;84.53;100133.88;4973747;28;20042;-78
2020/12/14 00:45:49;;;;;;;30.52;15.90;;;;;;;2.98;84.59;100170.94;4957781;28;20035;-78
2020/12/14 00:48:15;;;;;;;32.40;15.38;;;;;;;2.96;84.41;100164.84;4973601;28;20058;-76
2020/12/14 00:50:40;;;;;;;27.60;14.65;;;;;;;2.60;84.36;100122.03;4957961;28;20081;-75
2020/12/14 00:53:05;;;;;;;30.27;15.15;;;;;;;2.93;84.54;100161.44;4975260;28;20043;-75
2020/12/14 00:55:31;;;;;;;28.50;14.93;;;;;;;2.83;85.11;100172.25;4994008;28;20034;-74
2020/12/14 00:57:56;;;;;;;28.10;14.25;;;;;;;2.87;85.62;100187.06;4994571;28;20066;-76
2020/12/14 01:00:21;;;;;;;29.75;15.02;;;;;;;2.55;85.96;100135.34;4960497;28;20064;-74
2020/12/14 01:02:47;;;;;;;29.15;14.82;;;;;;;2.82;85.51;100186.34;4994105;28;20026;-77
2020/12/14 01:05:12;;;;;;;29.60;14.60;;;;;;;2.81;85.79;100194.31;4960810;28;20042;-75
2020/12/14 01:07:37;;;;;;;29.45;14.55;;;;;;;2.80;85.50;100184.69;4994072;28;20080;-74
2020/12/14 01:10:03;;;;;;;28.73;14.38;;;;;;;2.69;85.45;100157.75;4960648;28;20050;-74
2020/12/14 01:12:29;;;;;;;30.08;14.45;;;;;;;2.86;84.91;100158.13;4993793;28;20038;-75
2020/12/14 01:14:54;;;;;;;27.00;13.90;;;;;;;3.06;84.50;100194.41;4976615;28;20039;-75
2020/12/14 01:17:20;;;;;;;25.90;13.32;;;;;;;3.22;84.13;100200.94;4993515;28;20030;-76
2020/12/14 01:19:45;;;;;;;31.10;14.43;;;;;;;3.08;84.56;100196.09;4960857;28;20476;-75
2020/12/14 01:22:10;;;;;;;26.73;14.20;;;;;;;3.11;84.50;100203.91;4976518;28;20387;-75
2020/12/14 01:24:35;;;;;;;25.55;12.63;;;;;;;2.99;84.03;100187.59;4993595;28;20550;-74
2020/12/14 01:27:01;;;;;;;26.80;13.40;;;;;;;2.95;84.55;100193.88;4994142;28;20043;-73
2020/12/14 01:29:26;;;;;;;28.98;14.15;;;;;;;2.90;85.13;100208.97;4992895;28;20038;-75
2020/12/14 01:31:51;;;;;;;25.02;12.90;;;;;;;2.99;84.85;100216.59;4976813;28;20038;-75
2020/12/14 01:34:17;;;;;;;26.10;13.65;;;;;;;2.92;84.72;100220.31;4976281;28;20038;-75
2020/12/14 01:36:47;;;;;;;23.77;12.73;;;;;;;2.96;84.21;100219.31;4976375;28;20061;-74
2020/12/14 01:39:12;;;;;;;23.65;12.00;;;;;;;2.94;84.86;100223.78;4976817;28;20507;-73
2020/12/14 01:41:39;;;;;;;25.05;12.10;;;;;;;2.85;83.50;100202.06;4993275;28;20042;-74
2020/12/14 01:44:04;;;;;;;24.38;11.43;;;;;;;2.94;83.06;100222.00;4993551;28;20104;-74
2020/12/14 01:46:31;;;;;;;23.83;11.68;;;;;;;2.85;83.64;100230.16;4993207;28;20035;-75
2020/12/14 01:49:00;;;;;;;25.30;12.10;;;;;;;2.92;83.17;100220.31;4994019;28;20046;-75
2020/12/14 01:51:36;;;;;;;25.75;12.07;;;;;;;2.85;83.95;100217.00;4993274;28;20038;-76
2020/12/14 01:54:12;;;;;;;26.00;13.18;;;;;;;2.80;84.83;100214.50;4976415;28;20081;-75
2020/12/14 01:56:37;;;;;;;22.63;11.93;;;;;;;2.75;85.06;100215.53;4993510;28;20037;-75
2020/12/14 01:59:03;;;;;;;25.95;12.40;;;;;;;2.73;84.48;100222.63;4993629;28;20030;-74
2020/12/14 02:01:28;;;;;;;23.98;11.45;;;;;;;2.77;84.61;100227.75;4993111;28;20457;-74
2020/12/14 02:03:53;;;;;;;21.40;11.18;;;;;;;2.52;84.36;100181.97;4993451;28;20035;-74
2020/12/14 02:06:18;;;;;;;22.75;11.65;;;;;;;2.75;84.47;100224.31;4993057;28;20061;-76
2020/12/14 02:08:44;;;;;;;23.63;11.55;;;;;;;2.81;84.03;100224.13;4993376;28;20058;-74
2020/12/14 02:11:09;;;;;;;19.08;10.25;;;;;;;2.86;82.84;100211.69;4960017;28;20049;-75
2020/12/14 02:13:35;;;;;;;19.73;10.52;;;;;;;2.75;82.10;100189.19;4975573;28;20035;-75
2020/12/14 02:16:00;;;;;;;17.30;9.13;;;;;;;2.61;82.62;100171.19;4993573;28;20486;-72
2020/12/14 02:18:25;;;;;;;19.77;9.60;;;;;;;2.52;83.47;100188.09;4975476;28;20046;-73
2020/12/14 02:20:51;;;;;;;18.90;9.65;;;;;;;2.82;83.05;100233.78;4993190;28;20034;-71
2020/12/14 02:23:16;;;;;;;19.13;9.48;;;;;;;2.85;82.67;100236.31;4993325;28;20039;-73
2020/12/14 02:25:41;;;;;;;19.55;9.68;;;;;;;2.55;82.90;100179.25;4959434;28;20042;-75
2020/12/14 02:28:07;;;;;;;17.85;8.75;;;;;;;2.90;82.35;100235.31;4993240;28;20080;-74
2020/12/14 02:30:32;;;;;;;19.85;9.88;;;;;;;2.80;82.86;100232.09;4975623;28;20403;-74
2020/12/14 02:32:57;;;;;;;21.63;10.32;;;;;;;2.70;83.36;100230.59;4975719;28;20050;-73
2020/12/14 02:35:23;;;;;;;18.27;9.10;;;;;;;2.62;83.59;100238.75;4975452;28;20069;-75
2020/12/14 02:37:48;;;;;;;16.33;9.07;;;;;;;2.67;82.78;100225.44;4975852;28;20054;-75
2020/12/14 02:40:13;;;;;;;17.40;9.45;;;;;;;2.63;83.37;100237.81;4975609;28;20034;-74
2020/12/14 02:42:39;;;;;;;17.00;9.52;;;;;;;2.81;82.32;100237.31;4979124;28;20603;-71
2020/12/14 02:45:04;;;;;;;17.65;8.90;;;;;;;2.88;80.98;100233.56;4996789;28;20039;-76
2020/12/14 02:47:30;;;;;;;17.35;10.25;;;;;;;2.79;81.96;100248.78;4962994;28;20042;-76
2020/12/14 02:49:55;;;;;;;20.58;9.95;;;;;;;2.76;82.29;100259.41;4996763;28;20069;-75
2020/12/14 02:52:21;;;;;;;19.27;10.00;;;;;;;2.71;82.69;100256.91;4979012;28;20545;-77
2020/12/14 02:54:46;;;;;;;20.10;10.32;;;;;;;2.78;82.10;100258.44;4996834;28;20476;-75
2020/12/14 02:57:12;;;;;;;20.27;10.35;;;;;;;2.80;82.41;100261.94;4996484;28;20157;-76
2020/12/14 02:59:38;;;;;;;20.55;10.68;;;;;;;2.76;82.62;100260.28;4996186;28;20037;-76
2020/12/14 03:02:04;;;;;;;18.92;10.07;;;;;;;2.88;81.43;100261.69;4979138;28;20031;-75
2020/12/14 03:04:30;;;;;;;22.85;11.02;;;;;;;2.74;82.53;100255.97;4996206;28;20026;-75
2020/12/14 03:06:56;;;;;;;20.42;10.35;;;;;;;2.93;82.57;100272.13;4996391;28;20089;-74
2020/12/14 03:09:21;;;;;;;22.70;11.00;;;;;;;3.00;81.78;100279.81;4996773;28;20042;-83
2020/12/14 03:11:48;;;;;;;21.58;10.95;;;;;;;3.00;81.83;100274.53;4978885;28;20038;-72
2020/12/14 03:14:13;;;;;;;19.83;10.27;;;;;;;2.96;82.00;100282.56;4979266;28;20043;-75
2020/12/14 03:16:40;;;;;;;20.77;10.57;;;;;;;2.88;81.78;100290.66;4996009;28;20034;-74
2020/12/14 03:19:05;;;;;;;18.85;9.93;;;;;;;2.90;81.89;100285.38;4996176;28;20081;-75
2020/12/14 03:21:31;;;;;;;16.83;9.38;;;;;;;2.47;82.73;100249.69;4978533;28;20034;-77
2020/12/14 03:23:56;;;;;;;19.08;10.30;;;;;;;2.34;83.29;100253.56;4996120;28;20046;-77
2020/12/14 03:26:21;;;;;;;19.23;9.82;;;;;;;2.63;83.45;100294.91;4978664;28;20034;-76
2020/12/14 03:28:46;;;;;;;17.58;9.57;;;;;;;2.73;82.87;100289.34;4978651;28;20061;-76
2020/12/14 03:31:12;;;;;;;17.92;9.52;;;;;;;2.85;81.91;100298.66;4962443;28;20049;-76
2020/12/14 03:33:37;;;;;;;19.83;10.07;;;;;;;2.84;81.82;100292.53;4978478;28;20043;-74
2020/12/14 03:36:03;;;;;;;20.98;10.77;;;;;;;2.90;81.62;100277.47;4996128;28;20106;-76
2020/12/14 03:38:29;;;;;;;18.95;9.73;;;;;;;2.87;81.37;100304.75;4995609;28;20061;-77
2020/12/14 03:40:54;;;;;;;21.80;10.57;;;;;;;2.86;81.63;100303.88;4978369;28;20118;-76
2020/12/14 03:43:20;;;;;;;20.80;9.93;;;;;;;2.76;81.64;100291.88;4978260;28;20464;-76
2020/12/14 03:45:48;;;;;;;21.52;10.65;;;;;;;2.78;81.66;100305.88;4995660;28;20030;-77
2020/12/14 03:48:17;;;;;;;19.70;10.27;;;;;;;2.74;82.12;100309.50;4995619;28;20045;-79
2020/12/14 03:50:44;;;;;;;20.35;10.40;;;;;;;2.84;81.54;100300.44;4962329;28;20439;-75
2020/12/14 03:53:10;;;;;;;18.27;9.73;;;;;;;2.67;81.72;100300.03;4994516;28;20081;-76
2020/12/14 03:55:35;;;;;;;17.33;9.38;;;;;;;2.71;81.91;100292.94;4995093;28;20393;-75
2020/12/14 03:58:00;;;;;;;20.25;10.07;;;;;;;2.97;81.64;100319.41;4995648;28;20073;-74
2020/12/14 04:00:26;;;;;;;19.80;10.48;;;;;;;2.80;81.42;100308.50;4977666;28;20498;-78
2020/12/14 04:02:51;;;;;;;20.63;10.07;;;;;;;2.53;82.13;100284.63;4977992;28;20070;-73
2020/12/14 04:05:16;;;;;;;18.90;10.88;;;;;;;2.73;82.18;100315.69;4995588;28;20337;-74
2020/12/14 04:07:42;;;;;;;19.58;10.43;;;;;;;2.71;81.90;100293.78;4977398;28;20034;-73
2020/12/14 04:10:07;;;;;;;19.52;10.43;;;;;;;2.91;80.78;100321.38;4977939;28;20035;-75
2020/12/14 04:12:32;;;;;;;20.70;10.60;;;;;;;2.62;81.18;100280.88;4977721;28;20073;-74
2020/12/14 04:14:58;;;;;;;20.90;10.43;;;;;;;2.70;81.29;100292.06;4978115;28;20034;-73
2020/12/14 04:17:23;;;;;;;20.25;10.65;;;;;;;2.65;81.13;100282.56;4977602;28;20447;-75
2020/12/14 04:19:48;;;;;;;21.80;10.77;;;;;;;2.83;81.26;100319.78;4977315;28;20476;-75
2020/12/14 04:22:14;;;;;;;21.70;11.10;;;;;;;2.90;81.28;100345.97;4961638;28;20072;-74
2020/12/14 04:24:39;;;;;;;20.08;10.50;;;;;;;2.87;81.72;100355.69;4994813;28;20049;-74
2020/12/14 04:27:05;;;;;;;20.52;10.75;;;;;;;2.81;81.60;100347.94;4995188;28;20064;-74
2020/12/14 04:29:30;;;;;;;22.63;10.88;;;;;;;2.76;81.97;100351.59;4961196;28;20038;-75
2020/12/14 04:31:56;;;;;;;19.02;10.18;;;;;;;2.70;82.56;100344.75;4995028;28;20070;-75
2020/12/14 04:34:21;;;;;;;20.95;10.98;;;;;;;2.82;81.53;100338.28;4995314;28;20034;-74
2020/12/14 04:36:48;;;;;;;20.17;10.68;;;;;;;2.87;81.32;100350.41;4977181;28;20066;-73
2020/12/14 04:39:13;;;;;;;19.98;10.63;;;;;;;2.62;81.55;100335.31;4994537;28;20034;-74
2020/12/14 04:41:39;;;;;;;20.58;10.75;;;;;;;2.80;81.70;100356.75;4994406;28;20092;-74
2020/12/14 04:44:07;;;;;;;22.02;11.05;;;;;;;2.73;82.08;100371.00;4977319;28;20033;-72
2020/12/14 04:46:33;;;;;;;23.35;11.82;;;;;;;2.76;82.09;100375.31;4976988;28;20030;-73
2020/12/14 04:49:01;;;;;;;22.42;10.95;;;;;;;2.91;81.27;100381.97;4977034;28;20042;-74
2020/12/14 04:51:26;;;;;;;21.55;11.02;;;;;;;2.85;81.60;100386.47;4977449;28;20042;-76
2020/12/14 04:53:53;;;;;;;20.45;10.95;;;;;;;2.79;81.72;100377.84;4993897;28;20064;-75
2020/12/14 04:56:18;;;;;;;21.40;11.13;;;;;;;2.69;81.63;100357.94;4994357;28;20092;-74
2020/12/14 04:58:44;;;;;;;20.73;10.98;;;;;;;2.88;81.18;100396.06;4994043;28;20046;-76
2020/12/14 05:01:10;;;;;;;24.00;12.25;;;;;;;2.95;80.87;100394.13;4976906;28;20034;-75
2020/12/14 05:03:35;;;;;;;20.73;11.57;;;;;;;2.77;81.48;100383.16;4976572;28;20038;-75
2020/12/14 05:06:01;;;;;;;22.63;11.63;;;;;;;2.80;81.36;100380.47;4976855;28;20030;-75
2020/12/14 05:08:29;;;;;;;23.42;11.77;;;;;;;2.79;81.72;100385.75;4976650;28;20050;-75
2020/12/14 05:10:54;;;;;;;22.88;12.18;;;;;;;2.83;81.58;100401.47;4976571;28;20022;-75
2020/12/14 05:13:25;;;;;;;22.45;12.18;;;;;;;2.63;82.16;100392.34;4976720;28;20030;-75
2020/12/14 05:15:50;;;;;;;22.52;11.93;;;;;;;2.69;82.12;100422.00;4993804;28;20046;-76
2020/12/14 05:18:19;;;;;;;20.00;10.93;;;;;;;2.48;82.44;100391.81;4976968;28;20388;-76
2020/12/14 05:20:57;;;;;;;21.60;11.65;;;;;;;2.69;82.80;100437.81;4993520;28;20030;-77
2020/12/14 05:23:22;;;;;;;24.92;12.43;;;;;;;2.55;82.78;100424.13;4977039;28;20061;-75
2020/12/14 05:25:48;;;;;;;22.48;11.82;;;;;;;2.61;83.19;100425.75;4993631;28;20069;-73
2020/12/14 05:28:16;;;;;;;21.80;11.20;;;;;;;2.66;83.32;100448.44;4976421;28;20061;-74
2020/12/14 05:30:45;;;;;;;23.55;12.65;;;;;;;2.68;82.91;100441.34;4993454;28;20396;-73
2020/12/14 05:33:12;;;;;;;23.60;11.43;;;;;;;2.86;81.74;100456.69;4976236;28;20037;-75
2020/12/14 05:35:40;;;;;;;24.30;12.10;;;;;;;2.78;81.56;100437.59;4976171;28;20118;-74
2020/12/14 05:38:20;;;;;;;20.70;11.15;;;;;;;2.95;81.11;100452.97;4993880;28;20502;-74
2020/12/14 05:40:51;;;;;;;22.33;11.30;;;;;;;2.94;80.88;100450.38;4993205;28;20117;-74
2020/12/14 05:43:19;;;;;;;25.77;11.82;;;;;;;2.94;81.11;100453.00;4993727;28;20038;-75
2020/12/14 05:45:45;;;;;;;24.58;12.13;;;;;;;2.80;81.36;100461.28;4993331;28;20387;-76
2020/12/14 05:48:34;;;;;;;26.02;13.18;;;;;;;2.79;81.76;100459.53;4976212;28;20034;-74
2020/12/14 05:51:04;;;;;;;28.45;12.77;;;;;;;2.83;81.77;100462.06;4993653;28;20113;-73
2020/12/14 05:53:32;;;;;;;24.17;12.88;;;;;;;2.71;81.99;100465.00;4960048;28;20503;-73
2020/12/14 05:55:58;;;;;;;27.08;13.15;;;;;;;2.78;81.44;100463.06;4976033;28;20035;-74
2020/12/14 05:58:24;;;;;;;23.35;12.57;;;;;;;2.77;81.82;100477.13;4976012;28;20046;-74
2020/12/14 06:00:51;;;;;;;28.73;13.25;;;;;;;2.76;81.70;100471.00;4943758;28;20463;-77
2020/12/14 06:03:16;;;;;;;27.40;12.80;;;;;;;2.63;81.79;100445.03;4993310;28;20352;-76
2020/12/14 06:05:46;;;;;;;25.13;12.85;;;;;;;2.80;81.64;100477.94;4975964;28;20038;-76
2020/12/14 06:08:40;;;;;;;25.00;13.60;;;;;;;2.79;82.12;100480.59;4993363;28;20557;-77
2020/12/14 06:11:06;;;;;;;;;;;;;;;2.74;81.54;100487.75;4994125;28;20049;-75
2020/12/14 06:13:32;;;;;;;28.60;12.23;;;;;;;2.65;82.17;100487.97;4976219;28;19916;-77
2020/12/14 06:16:02;;;;;;;27.38;13.57;;;;;;;2.56;82.30;100489.94;4994093;28;20399;-76
2020/12/14 06:18:37;;;;;;;26.50;12.75;;;;;;;2.55;82.18;100489.97;4979775;28;20092;-76
2020/12/14 06:21:02;;;;;;;28.35;13.38;;;;;;;2.58;82.22;100489.88;4997213;28;20042;-76
2020/12/14 06:23:37;;;;;;;24.35;12.88;;;;;;;2.65;82.01;100515.19;4997088;28;20031;-75
2020/12/14 06:26:05;;;;;;;25.90;13.20;;;;;;;2.36;82.28;100459.69;4997716;28;20026;-75
2020/12/14 06:28:32;;;;;;;26.33;13.85;;;;;;;2.57;82.67;100515.34;4979751;28;20400;-73
2020/12/14 06:30:58;;;;;;;29.85;14.88;;;;;;;2.47;83.84;100526.13;4979322;28;20037;-73
2020/12/14 06:33:38;;;;;;;27.25;13.70;;;;;;;2.49;83.50;100521.69;4979583;28;20030;-75
2020/12/14 06:36:24;;;;;;;29.92;15.10;;;;;;;2.62;83.02;100514.41;4997115;28;20058;-73
2020/12/14 06:38:51;;;;;;;29.00;14.20;;;;;;;2.80;82.28;100520.09;4996833;28;20073;-72
2020/12/14 06:41:21;;;;;;;28.38;14.85;;;;;;;2.59;82.15;100487.22;4997263;28;20035;-72
2020/12/14 06:44:05;;;;;;;28.38;14.70;;;;;;;2.85;81.91;100526.09;4963747;28;20125;-75
2020/12/14 06:46:33;;;;;;;27.77;14.48;;;;;;;2.66;82.13;100514.28;4963306;28;20038;-72
2020/12/14 06:49:00;;;;;;;28.35;14.68;;;;;;;2.76;81.47;100513.16;4996752;28;20041;-72
2020/12/14 06:51:49;;;;;;;30.58;15.55;;;;;;;2.77;81.65;100514.88;4997049;28;20046;-72
2020/12/14 06:54:52;;;;;;;30.50;15.13;;;;;;;2.85;81.61;100528.75;4996972;28;20054;-75
2020/12/14 06:57:18;;;;;;;27.73;14.32;;;;;;;2.69;82.34;100534.41;4979579;28;20393;-72
2020/12/14 06:59:51;;;;;;;32.80;16.27;;;;;;;2.51;83.20;100539.22;4996486;28;20030;-73
2020/12/14 07:02:16;;;;;;;32.92;15.93;;;;;;;2.50;83.08;100545.34;4996594;28;20041;-74
2020/12/14 07:04:43;;;;;;;31.65;15.45;;;;;;;2.41;82.98;100506.06;4996307;28;20038;-76
2020/12/14 07:07:11;;;;;;;33.63;16.33;;;;;;;2.57;82.87;100541.69;4996402;28;20030;-75
2020/12/14 07:09:38;;;;;;;31.95;14.93;;;;;;;2.29;82.38;100496.69;4996412;28;20357;-74
2020/12/14 07:12:09;;;;;;;29.90;15.23;;;;;;;2.51;82.82;100535.69;4996501;28;20140;-74
2020/12/14 07:14:45;;;;;;;32.47;15.60;;;;;;;2.52;83.44;100540.09;4996378;28;20034;-73
2020/12/14 07:17:21;;;;;;;32.47;16.85;;;;;;;2.44;83.78;100537.63;4979001;28;20038;-74
2020/12/14 07:19:49;;;;;;;34.55;17.17;;;;;;;2.57;83.44;100540.81;4996007;28;20038;-72
2020/12/14 07:22:17;;;;;;;37.70;17.52;;;;;;;2.59;83.62;100541.66;4979253;28;20085;-72
2020/12/14 07:24:43;;;;;;;35.78;17.17;;;;;;;2.34;83.68;100506.28;4996413;28;20030;-71
2020/12/14 07:27:10;;;;;;;36.33;16.55;;;;;;;2.67;83.42;100547.63;4979327;28;20053;-73
2020/12/14 07:29:36;;;;;;;33.20;16.75;;;;;;;2.70;83.00;100544.94;4962823;28;20539;-71
2020/12/14 07:32:05;;;;;;;33.80;17.00;;;;;;;2.72;83.59;100543.13;4978980;28;20039;-74
2020/12/14 07:34:31;;;;;;;36.30;17.75;;;;;;;2.83;82.83;100541.09;4996030;28;20101;-73
2020/12/14 07:36:56;;;;;;;37.10;17.92;;;;;;;2.73;83.79;100550.13;4995929;28;20084;-75
2020/12/14 07:39:22;;;;;;;35.67;17.40;;;;;;;2.68;83.99;100551.97;4963072;28;20125;-74
2020/12/14 07:41:47;;;;;;;35.22;16.95;;;;;;;2.50;84.06;100537.47;4995770;28;20050;-76
2020/12/14 07:44:13;;;;;;;35.00;17.23;;;;;;;2.70;84.47;100552.84;4995931;28;20027;-76
2020/12/14 07:46:38;;;;;;;36.83;18.30;;;;;;;2.62;84.38;100536.34;4995988;28;20539;-75
2020/12/14 07:49:12;;;;;;;34.97;16.88;;;;;;;2.60;84.56;100551.28;4978197;28;20053;-72
2020/12/14 07:51:41;;;;;;;34.25;17.75;;;;;;;2.71;84.31;100549.28;4979159;28;20369;-73
2020/12/14 07:54:09;;;;;;;31.95;16.33;;;;;;;2.55;84.09;100522.44;4995963;28;20057;-74
2020/12/14 07:56:44;;;;;;;32.60;15.38;;;;;;;2.70;84.27;100537.03;4995546;28;20034;-72
2020/12/14 07:59:36;;;;;;;35.65;17.75;;;;;;;2.81;83.31;100547.31;4995860;28;20034;-74
2020/12/14 08:02:07;;;;;;;33.30;16.52;;;;;;;2.82;82.82;100531.47;4992831;28;20104;-74
2020/12/14 08:04:33;;;;;;;37.95;17.17;;;;;;;2.80;82.71;100525.38;4995327;28;20450;-73
2020/12/14 08:07:00;;;;;;;35.47;17.45;;;;;;;3.01;82.11;100533.66;4995041;28;20057;-74
2020/12/14 08:09:34;;;;;;;29.92;14.95;;;;;;;2.96;81.94;100539.00;4995423;28;20035;-73
2020/12/14 08:12:00;;;;;;;31.98;15.98;;;;;;;3.03;81.74;100537.09;4977877;28;20022;-73
2020/12/14 08:14:26;;;;;;;27.90;13.75;;;;;;;3.13;81.27;100546.50;4995366;28;20042;-72
2020/12/14 08:16:52;;;;;;;24.75;12.52;;;;;;;3.13;80.97;100549.16;4995182;28;20030;-73
2020/12/14 08:19:20;;;;;;;27.45;12.45;;;;;;;2.93;81.65;100540.88;4977839;28;20035;-73
2020/12/14 08:22:07;;;;;;;30.35;13.82;;;;;;;3.13;81.83;100578.16;4995071;28;20392;-75
2020/12/14 08:24:34;;;;;;;27.60;12.55;;;;;;;3.02;82.14;100575.78;4977933;28;20034;-73
2020/12/14 08:27:08;;;;;;;27.00;13.63;;;;;;;2.87;82.64;100563.81;4994986;28;20472;-73
2020/12/14 08:29:35;;;;;;;26.25;12.85;;;;;;;2.84;82.71;100569.16;4995101;28;20030;-73
2020/12/14 08:32:01;;;;;;;28.73;14.18;;;;;;;2.86;83.08;100579.66;4994758;28;20383;-73
2020/12/14 08:34:37;;;;;;;24.30;12.10;;;;;;;3.12;81.61;100579.91;4994735;28;20093;-73
2020/12/14 08:37:04;;;;;;;23.52;11.50;;;;;;;2.97;81.12;100535.47;4994621;28;20036;-72
2020/12/14 08:39:31;;;;;;;22.58;11.80;;;;;;;2.98;81.79;100575.88;4977055;28;20106;-73
2020/12/14 08:42:12;;;;;;;25.73;12.23;;;;;;;2.87;81.61;100558.53;4994744;28;20065;-73
2020/12/14 08:44:41;;;;;;;26.52;12.43;;;;;;;2.97;82.21;100574.13;4977400;28;20053;-72
2020/12/14 08:47:17;;;;;;;28.33;13.00;;;;;;;2.98;82.37;100579.38;4977232;28;20038;-74
2020/12/14 08:49:43;;;;;;;28.83;13.35;;;;;;;3.00;82.17;100571.44;4994969;28;20038;-73
2020/12/14 08:52:19;;;;;;;22.00;11.57;;;;;;;3.03;82.10;100584.53;4977103;28;20440;-73
2020/12/14 08:54:52;;;;;;;23.90;11.57;;;;;;;3.07;81.87;100580.91;4994422;28;20407;-73
2020/12/14 08:57:29;;;;;;;28.45;11.90;;;;;;;3.08;82.06;100587.91;4994499;28;20373;-74
2020/12/14 09:00:13;;;;;;;23.45;11.85;;;;;;;3.24;81.33;100573.47;4994384;28;20027;-74
2020/12/14 09:02:38;;;;;;;;;;;;;;;3.24;81.59;100572.59;4999476;28;20052;-74
2020/12/14 09:05:18;;;;;;;21.15;10.20;;;;;;;3.15;81.39;100568.41;4976948;28;20343;-72
2020/12/14 09:07:44;;;;;;;21.33;9.77;;;;;;;3.10;80.88;100570.31;4994382;28;20041;-73
2020/12/14 09:10:17;;;;;;;22.50;9.88;;;;;;;2.86;81.57;100555.94;4994035;28;20468;-73
2020/12/14 09:12:42;;;;;;;22.27;10.40;;;;;;;2.84;82.54;100577.06;4994434;28;20038;-73
2020/12/14 09:15:08;;;;;;;21.08;10.55;;;;;;;2.80;83.03;100580.69;4976719;28;20097;-73
2020/12/14 09:17:33;;;;;;;25.58;11.75;;;;;;;2.80;83.35;100583.31;4994322;28;20037;-74
2020/12/14 09:20:00;;;;;;;24.92;11.93;;;;;;;2.98;82.95;100587.28;4993818;28;20030;-73
2020/12/14 09:22:25;;;;;;;24.73;11.30;;;;;;;3.20;82.32;100590.28;4960644;28;20035;-73
2020/12/14 09:24:50;;;;;;;20.95;10.77;;;;;;;3.27;82.08;100597.13;4960491;28;20445;-74
2020/12/14 09:27:16;;;;;;;22.83;11.07;;;;;;;3.22;81.56;100570.00;4976940;28;20042;-73
2020/12/14 09:29:42;;;;;;;21.25;10.63;;;;;;;3.24;81.77;100581.38;4994021;28;20484;-73
2020/12/14 09:32:09;;;;;;;20.48;10.68;;;;;;;3.11;81.91;100561.50;4960426;28;20121;-74
2020/12/14 09:34:35;;;;;;;21.20;10.18;;;;;;;3.22;81.14;100548.91;4976792;28;20040;-73
2020/12/14 09:37:01;;;;;;;22.50;10.77;;;;;;;3.41;80.93;100576.56;4993702;28;20109;-73
2020/12/14 09:39:29;;;;;;;24.85;11.10;;;;;;;3.03;81.21;100531.84;4993623;28;20057;-72
2020/12/14 09:41:56;;;;;;;24.50;11.80;;;;;;;3.12;82.17;100569.38;4976399;28;20069;-74
2020/12/14 09:44:22;;;;;;;23.88;11.05;;;;;;;3.15;81.87;100563.16;4993788;28;20033;-73
2020/12/14 09:46:48;;;;;;;25.63;11.40;;;;;;;2.86;82.11;100519.94;4993572;28;20387;-82
2020/12/14 09:49:13;;;;;;;25.15;11.75;;;;;;;3.16;82.49;100571.00;4960058;28;20034;-74
2020/12/14 09:51:38;;;;;;;24.65;11.93;;;;;;;3.17;82.38;100569.25;4975795;28;20042;-72
2020/12/14 09:54:05;;;;;;;24.15;11.20;;;;;;;2.95;82.88;100574.19;4993204;28;20097;-73
2020/12/14 09:56:31;;;;;;;26.40;12.00;;;;;;;2.91;82.94;100574.31;4994023;28;20034;-73
2020/12/14 09:58:56;;;;;;;24.50;12.60;;;;;;;2.97;82.96;100575.00;4976035;28;20177;-73
2020/12/14 10:01:24;;;;;;;27.73;12.77;;;;;;;2.96;83.20;100572.41;4976385;28;20092;-73
2020/12/14 10:03:49;;;;;;;26.92;12.73;;;;;;;2.86;83.03;100550.69;4993776;28;20038;-79
2020/12/14 10:06:15;;;;;;;24.67;12.15;;;;;;;2.96;83.10;100569.78;4993725;28;20251;-73
2020/12/14 10:08:41;;;;;;;28.35;14.25;;;;;;;3.00;83.18;100574.09;4993686;28;20096;-73
2020/12/14 10:11:07;;;;;;;23.88;12.27;;;;;;;3.04;82.98;100559.91;4993274;28;20476;-73
2020/12/14 10:13:34;;;;;;;26.17;12.60;;;;;;;3.14;82.42;100557.03;4993562;28;20050;-74
2020/12/14 10:16:00;;;;;;;25.77;12.77;;;;;;;3.23;82.17;100562.97;4943728;28;20038;-73
2020/12/14 10:18:25;;;;;;;24.75;12.85;;;;;;;3.09;82.90;100551.00;4993649;28;20096;-72
2020/12/14 10:20:51;;;;;;;28.33;12.73;;;;;;;3.16;82.41;100556.97;4975512;28;20400;-77
2020/12/14 10:23:17;;;;;;;27.30;12.07;;;;;;;3.36;81.89;100562.59;4993540;28;20038;-72
2020/12/14 10:25:42;;;;;;;25.77;12.20;;;;;;;3.35;81.67;100560.88;4993809;28;20042;-72
2020/12/14 10:28:08;;;;;;;27.98;12.52;;;;;;;3.24;82.17;100568.19;4993125;28;20037;-74
2020/12/14 10:30:34;;;;;;;26.25;13.35;;;;;;;3.15;82.38;100549.97;4993437;28;20089;-72
2020/12/14 10:33:00;;;;;;;27.40;13.45;;;;;;;3.08;82.35;100528.16;4975854;28;20452;-73
2020/12/14 10:35:26;;;;;;;26.30;12.85;;;;;;;3.33;82.04;100567.09;4943870;28;20038;-74
2020/12/14 10:37:52;;;;;;;27.05;13.50;;;;;;;3.25;82.09;100556.75;4993268;28;20042;-84
2020/12/14 10:40:17;;;;;;;26.50;12.95;;;;;;;3.07;82.74;100549.28;4993415;28;20030;-72
2020/12/14 10:42:43;;;;;;;27.58;12.77;;;;;;;3.02;82.82;100562.59;4993248;28;20038;-73
2020/12/14 10:45:09;;;;;;;30.75;14.05;;;;;;;3.08;83.28;100575.59;4992832;28;20027;-73
2020/12/14 10:47:35;;;;;;;26.08;12.38;;;;;;;2.99;83.50;100572.31;4993372;28;20113;-72
2020/12/14 10:50:00;;;;;;;30.88;13.50;;;;;;;2.97;83.00;100563.59;4943610;28;20038;-73
2020/12/14 10:52:26;;;;;;;27.02;12.85;;;;;;;2.88;83.09;100528.66;4976177;28;20042;-73
2020/12/14 10:54:51;;;;;;;29.63;14.65;;;;;;;3.18;83.09;100570.97;4993271;28;20043;-73
2020/12/14 10:57:18;;;;;;;33.67;16.50;;;;;;;3.25;83.77;100569.06;4975605;28;20061;-74
2020/12/14 10:59:44;;;;;;;32.53;15.63;;;;;;;3.15;83.45;100558.75;4993258;28;20035;-73
2020/12/14 11:02:10;;;;;;;29.15;13.63;;;;;;;3.33;82.09;100564.47;4976651;28;20045;-74
2020/12/14 11:04:36;;;;;;;31.05;14.20;;;;;;;3.24;82.46;100546.25;4996593;28;20395;-74
2020/12/14 11:07:02;;;;;;;31.73;16.50;;;;;;;3.22;82.38;100538.38;4996187;28;20038;-73
2020/12/14 11:09:27;;;;;;;35.17;16.02;;;;;;;3.53;82.15;100578.00;4996562;28;20118;-73
2020/12/14 11:11:52;;;;;;;39.88;18.67;;;;;;;3.41;82.10;100552.81;4996428;28;20094;-73
2020/12/14 11:14:18;;;;;;;36.33;17.45;;;;;;;3.36;81.97;100559.97;4996197;28;20030;-74
2020/12/14 11:16:46;;;;;;;35.28;16.33;;;;;;;3.41;81.91;100571.28;4996380;28;20492;-73
2020/12/14 11:19:12;;;;;;;34.17;17.08;;;;;;;3.39;82.89;100577.50;4978656;28;20035;-73
2020/12/14 11:21:37;;;;;;;37.90;18.25;;;;;;;3.39;82.79;100554.63;4996401;28;20425;-73